Portada
METAR-TAF:

METAR-TAF

Aeroports :

Rahim Yar Khan, Pakistan

latitud: 28-23-02N, longitud: 70-16-47E, altitud: 83 m

METAR: manca

Hora: 01:17 (20:17 UTC)

Pronòstic

L'informe es va fer fa 4 hores i 32 minuts, a les 15:45 UTC
Pronòstic vàlid del 26 a les 18 UTC al 27 a les 12 UTC
Vent 10 kt del Sud
Visibilitat: 4000 m
calitja
A partir de les UTC
Vent 10 kt del Sud-Oest
Visibilitat: 6000 m
Escasses núvols a una alçada de 12000 ft

TAF: OPRK 261545Z 2618/2712 18010KT 4000 HZ NSC TN28/2701Z TX45/2710Z FM 270700 23010KT 6000 FEW120

Observacions i pronòstics meteorològics de més de 4000 aeroports (METAR i TAF).

Les estacions disponibles són els punts grocs i vermells al mapa.

Posi el ratolí al punt desitjat per veure el nom de l'estació.

Feu clic per veure les observacions i els pronòstics meteorològics.

Per canviar el mapa: feu clic els botons verds amb una creu de color negre per apropar; al botó verd amb un guió per allunyar la imatge; o en les fletxes verdes per a mapes adjacents.


METAR-TAF: